sensor_id;sensor_type;location;lat;lon;timestamp;temperature;humidity
70079;DHT22;57451;52.496;13.456;2023-08-12T00:00:03;20.00;62.40
70079;DHT22;57451;52.496;13.456;2023-08-12T00:02:40;20.00;62.40
70079;DHT22;57451;52.496;13.456;2023-08-12T00:05:09;20.00;63.40
70079;DHT22;57451;52.496;13.456;2023-08-12T00:07:40;20.00;63.40
70079;DHT22;57451;52.496;13.456;2023-08-12T00:10:11;19.90;63.90
70079;DHT22;57451;52.496;13.456;2023-08-12T00:12:39;19.90;63.20
70079;DHT22;57451;52.496;13.456;2023-08-12T00:15:08;19.90;62.40
70079;DHT22;57451;52.496;13.456;2023-08-12T00:17:36;19.80;63.00
70079;DHT22;57451;52.496;13.456;2023-08-12T00:20:05;19.80;64.10
70079;DHT22;57451;52.496;13.456;2023-08-12T00:22:34;19.80;63.40
70079;DHT22;57451;52.496;13.456;2023-08-12T00:25:03;19.80;64.00
70079;DHT22;57451;52.496;13.456;2023-08-12T00:27:31;19.70;64.20
70079;DHT22;57451;52.496;13.456;2023-08-12T00:29:58;19.70;63.80
70079;DHT22;57451;52.496;13.456;2023-08-12T00:32:25;19.70;64.00
70079;DHT22;57451;52.496;13.456;2023-08-12T00:34:53;19.70;63.80
70079;DHT22;57451;52.496;13.456;2023-08-12T00:37:20;19.60;64.30
70079;DHT22;57451;52.496;13.456;2023-08-12T00:39:48;19.60;64.70
70079;DHT22;57451;52.496;13.456;2023-08-12T00:42:16;19.60;63.50
70079;DHT22;57451;52.496;13.456;2023-08-12T00:44:44;19.60;64.40
70079;DHT22;57451;52.496;13.456;2023-08-12T00:47:11;19.60;64.60
70079;DHT22;57451;52.496;13.456;2023-08-12T00:49:40;19.50;63.50
70079;DHT22;57451;52.496;13.456;2023-08-12T00:52:07;19.50;63.30
70079;DHT22;57451;52.496;13.456;2023-08-12T00:54:35;19.50;63.50
70079;DHT22;57451;52.496;13.456;2023-08-12T00:57:03;19.50;63.80
70079;DHT22;57451;52.496;13.456;2023-08-12T00:59:32;19.50;63.40
70079;DHT22;57451;52.496;13.456;2023-08-12T01:02:01;19.40;64.10
70079;DHT22;57451;52.496;13.456;2023-08-12T01:04:29;19.50;64.60
70079;DHT22;57451;52.496;13.456;2023-08-12T01:06:57;19.40;65.10
70079;DHT22;57451;52.496;13.456;2023-08-12T01:09:24;19.40;64.00
70079;DHT22;57451;52.496;13.456;2023-08-12T01:11:59;19.40;64.40
70079;DHT22;57451;52.496;13.456;2023-08-12T01:14:35;19.40;64.90
70079;DHT22;57451;52.496;13.456;2023-08-12T01:17:06;19.40;65.00
70079;DHT22;57451;52.496;13.456;2023-08-12T01:19:35;19.40;65.60
70079;DHT22;57451;52.496;13.456;2023-08-12T01:22:06;19.40;65.00
70079;DHT22;57451;52.496;13.456;2023-08-12T01:24:36;19.30;65.00
70079;DHT22;57451;52.496;13.456;2023-08-12T01:27:05;19.30;65.40
70079;DHT22;57451;52.496;13.456;2023-08-12T01:29:33;19.30;65.60
70079;DHT22;57451;52.496;13.456;2023-08-12T01:32:08;19.30;64.50
70079;DHT22;57451;52.496;13.456;2023-08-12T01:34:41;19.30;65.50
70079;DHT22;57451;52.496;13.456;2023-08-12T01:37:12;19.30;64.80
70079;DHT22;57451;52.496;13.456;2023-08-12T01:39:43;19.20;65.00
70079;DHT22;57451;52.496;13.456;2023-08-12T01:42:14;19.20;65.90
70079;DHT22;57451;52.496;13.456;2023-08-12T01:44:42;19.20;66.20
70079;DHT22;57451;52.496;13.456;2023-08-12T01:47:09;19.20;66.10
70079;DHT22;57451;52.496;13.456;2023-08-12T01:49:37;19.10;65.70
70079;DHT22;57451;52.496;13.456;2023-08-12T01:52:05;19.10;65.90
70079;DHT22;57451;52.496;13.456;2023-08-12T01:54:32;19.10;65.00
70079;DHT22;57451;52.496;13.456;2023-08-12T01:57:04;19.10;65.80
70079;DHT22;57451;52.496;13.456;2023-08-12T01:59:32;19.10;65.80
70079;DHT22;57451;52.496;13.456;2023-08-12T02:02:00;19.10;65.90
70079;DHT22;57451;52.496;13.456;2023-08-12T02:04:28;19.00;65.90
70079;DHT22;57451;52.496;13.456;2023-08-12T02:06:55;19.00;65.60
70079;DHT22;57451;52.496;13.456;2023-08-12T02:09:23;19.00;66.30
70079;DHT22;57451;52.496;13.456;2023-08-12T02:11:50;19.00;65.80
70079;DHT22;57451;52.496;13.456;2023-08-12T02:14:19;19.00;66.10
70079;DHT22;57451;52.496;13.456;2023-08-12T02:16:46;19.00;65.50
70079;DHT22;57451;52.496;13.456;2023-08-12T02:19:14;18.90;66.10
70079;DHT22;57451;52.496;13.456;2023-08-12T02:21:41;18.90;65.30
70079;DHT22;57451;52.496;13.456;2023-08-12T02:24:09;18.90;65.60
70079;DHT22;57451;52.496;13.456;2023-08-12T02:26:37;18.90;66.30
70079;DHT22;57451;52.496;13.456;2023-08-12T02:29:05;18.90;65.40
70079;DHT22;57451;52.496;13.456;2023-08-12T02:31:34;18.90;66.10
70079;DHT22;57451;52.496;13.456;2023-08-12T02:34:01;18.90;65.90
70079;DHT22;57451;52.496;13.456;2023-08-12T02:36:29;18.80;66.90
70079;DHT22;57451;52.496;13.456;2023-08-12T02:38:56;18.80;66.70
70079;DHT22;57451;52.496;13.456;2023-08-12T02:41:24;18.80;66.00
70079;DHT22;57451;52.496;13.456;2023-08-12T02:43:51;18.80;66.80
70079;DHT22;57451;52.496;13.456;2023-08-12T02:46:19;18.80;67.10
70079;DHT22;57451;52.496;13.456;2023-08-12T02:48:47;18.80;66.50
70079;DHT22;57451;52.496;13.456;2023-08-12T02:51:15;18.80;66.80
70079;DHT22;57451;52.496;13.456;2023-08-12T02:53:42;18.80;66.20
70079;DHT22;57451;52.496;13.456;2023-08-12T02:56:09;18.80;66.40
70079;DHT22;57451;52.496;13.456;2023-08-12T02:58:37;18.80;65.70
70079;DHT22;57451;52.496;13.456;2023-08-12T03:01:05;18.80;65.90
70079;DHT22;57451;52.496;13.456;2023-08-12T03:03:32;18.80;66.60
70079;DHT22;57451;52.496;13.456;2023-08-12T03:06:01;18.70;66.40
70079;DHT22;57451;52.496;13.456;2023-08-12T03:08:30;18.80;66.30
70079;DHT22;57451;52.496;13.456;2023-08-12T03:11:00;18.80;66.40
70079;DHT22;57451;52.496;13.456;2023-08-12T03:13:29;18.70;66.10
70079;DHT22;57451;52.496;13.456;2023-08-12T03:15:57;18.70;65.80
70079;DHT22;57451;52.496;13.456;2023-08-12T03:18:25;18.70;67.00
70079;DHT22;57451;52.496;13.456;2023-08-12T03:20:53;18.70;66.10
70079;DHT22;57451;52.496;13.456;2023-08-12T03:23:24;18.70;66.30
70079;DHT22;57451;52.496;13.456;2023-08-12T03:25:52;18.70;66.70
70079;DHT22;57451;52.496;13.456;2023-08-12T03:28:20;18.70;67.10
70079;DHT22;57451;52.496;13.456;2023-08-12T03:30:50;18.70;66.80
70079;DHT22;57451;52.496;13.456;2023-08-12T03:33:20;18.60;65.70
70079;DHT22;57451;52.496;13.456;2023-08-12T03:35:49;18.60;66.60
70079;DHT22;57451;52.496;13.456;2023-08-12T03:38:17;18.60;66.80
70079;DHT22;57451;52.496;13.456;2023-08-12T03:40:47;18.60;67.60
70079;DHT22;57451;52.496;13.456;2023-08-12T03:43:17;18.60;67.60
70079;DHT22;57451;52.496;13.456;2023-08-12T03:45:45;18.60;67.60
70079;DHT22;57451;52.496;13.456;2023-08-12T03:48:15;18.60;67.80
70079;DHT22;57451;52.496;13.456;2023-08-12T03:50:43;18.50;68.10
70079;DHT22;57451;52.496;13.456;2023-08-12T03:53:12;18.60;67.60
70079;DHT22;57451;52.496;13.456;2023-08-12T03:55:41;18.50;67.20
70079;DHT22;57451;52.496;13.456;2023-08-12T03:58:10;18.50;67.20
70079;DHT22;57451;52.496;13.456;2023-08-12T04:00:41;18.40;67.60
70079;DHT22;57451;52.496;13.456;2023-08-12T04:03:10;18.40;67.00
70079;DHT22;57451;52.496;13.456;2023-08-12T04:05:37;18.40;67.10
70079;DHT22;57451;52.496;13.456;2023-08-12T04:08:05;18.40;66.60
70079;DHT22;57451;52.496;13.456;2023-08-12T04:10:32;18.40;67.60
70079;DHT22;57451;52.496;13.456;2023-08-12T04:13:00;18.40;66.70
70079;DHT22;57451;52.496;13.456;2023-08-12T04:15:28;18.40;67.50
70079;DHT22;57451;52.496;13.456;2023-08-12T04:17:56;18.30;67.40
70079;DHT22;57451;52.496;13.456;2023-08-12T04:20:23;18.30;66.50
70079;DHT22;57451;52.496;13.456;2023-08-12T04:22:51;18.30;67.40
70079;DHT22;57451;52.496;13.456;2023-08-12T04:25:19;18.30;67.50
70079;DHT22;57451;52.496;13.456;2023-08-12T04:27:46;18.30;67.80
70079;DHT22;57451;52.496;13.456;2023-08-12T04:30:16;18.30;67.80
70079;DHT22;57451;52.496;13.456;2023-08-12T04:32:45;18.30;67.80
70079;DHT22;57451;52.496;13.456;2023-08-12T04:35:12;18.30;67.90
70079;DHT22;57451;52.496;13.456;2023-08-12T04:37:40;18.30;68.30
70079;DHT22;57451;52.496;13.456;2023-08-12T04:40:09;18.30;68.00
70079;DHT22;57451;52.496;13.456;2023-08-12T04:42:36;18.30;67.90
70079;DHT22;57451;52.496;13.456;2023-08-12T04:45:06;18.20;68.30
70079;DHT22;57451;52.496;13.456;2023-08-12T04:47:34;18.30;68.60
70079;DHT22;57451;52.496;13.456;2023-08-12T04:50:04;18.30;68.10
70079;DHT22;57451;52.496;13.456;2023-08-12T04:52:31;18.30;67.70
70079;DHT22;57451;52.496;13.456;2023-08-12T04:54:59;18.30;68.00
70079;DHT22;57451;52.496;13.456;2023-08-12T04:57:27;18.30;67.80
70079;DHT22;57451;52.496;13.456;2023-08-12T04:59:54;18.30;68.10
70079;DHT22;57451;52.496;13.456;2023-08-12T05:02:23;18.30;68.20
70079;DHT22;57451;52.496;13.456;2023-08-12T05:04:51;18.40;67.90
70079;DHT22;57451;52.496;13.456;2023-08-12T05:07:22;18.40;67.90
70079;DHT22;57451;52.496;13.456;2023-08-12T05:09:50;18.40;68.00
70079;DHT22;57451;52.496;13.456;2023-08-12T05:12:18;18.40;67.60
70079;DHT22;57451;52.496;13.456;2023-08-12T05:14:46;18.50;67.20
70079;DHT22;57451;52.496;13.456;2023-08-12T05:17:13;18.50;67.70
70079;DHT22;57451;52.496;13.456;2023-08-12T05:19:42;18.50;67.50
70079;DHT22;57451;52.496;13.456;2023-08-12T05:22:10;18.60;67.50
70079;DHT22;57451;52.496;13.456;2023-08-12T05:24:39;18.60;67.80
70079;DHT22;57451;52.496;13.456;2023-08-12T05:27:07;18.60;67.80
70079;DHT22;57451;52.496;13.456;2023-08-12T05:29:34;18.70;67.60
70079;DHT22;57451;52.496;13.456;2023-08-12T05:32:01;18.80;67.90
70079;DHT22;57451;52.496;13.456;2023-08-12T05:34:29;18.80;67.10
70079;DHT22;57451;52.496;13.456;2023-08-12T05:36:56;18.90;67.60
70079;DHT22;57451;52.496;13.456;2023-08-12T05:39:23;19.00;67.40
70079;DHT22;57451;52.496;13.456;2023-08-12T05:41:52;19.10;67.00
70079;DHT22;57451;52.496;13.456;2023-08-12T05:44:19;19.20;66.90
70079;DHT22;57451;52.496;13.456;2023-08-12T05:46:47;19.30;66.60
70079;DHT22;57451;52.496;13.456;2023-08-12T05:49:14;19.50;66.30
70079;DHT22;57451;52.496;13.456;2023-08-12T05:51:42;19.50;66.40
70079;DHT22;57451;52.496;13.456;2023-08-12T05:54:09;19.60;65.60
70079;DHT22;57451;52.496;13.456;2023-08-12T05:56:36;19.70;65.10
70079;DHT22;57451;52.496;13.456;2023-08-12T05:59:05;19.80;65.00
70079;DHT22;57451;52.496;13.456;2023-08-12T06:01:33;19.90;64.60
70079;DHT22;57451;52.496;13.456;2023-08-12T06:04:00;20.00;64.60
70079;DHT22;57451;52.496;13.456;2023-08-12T06:06:27;20.00;64.60
70079;DHT22;57451;52.496;13.456;2023-08-12T06:08:55;20.00;64.50
70079;DHT22;57451;52.496;13.456;2023-08-12T06:11:22;20.10;64.00
70079;DHT22;57451;52.496;13.456;2023-08-12T06:13:50;20.20;64.70
70079;DHT22;57451;52.496;13.456;2023-08-12T06:16:18;20.20;64.50
70079;DHT22;57451;52.496;13.456;2023-08-12T06:18:46;20.30;64.10
70079;DHT22;57451;52.496;13.456;2023-08-12T06:21:13;20.40;64.30
70079;DHT22;57451;52.496;13.456;2023-08-12T06:23:40;20.40;64.20
70079;DHT22;57451;52.496;13.456;2023-08-12T06:26:08;20.50;64.00
70079;DHT22;57451;52.496;13.456;2023-08-12T06:28:35;20.50;63.70
70079;DHT22;57451;52.496;13.456;2023-08-12T06:31:03;20.60;63.80
70079;DHT22;57451;52.496;13.456;2023-08-12T06:33:31;20.70;63.80
70079;DHT22;57451;52.496;13.456;2023-08-12T06:35:59;20.70;63.50
70079;DHT22;57451;52.496;13.456;2023-08-12T06:38:26;20.80;63.70
70079;DHT22;57451;52.496;13.456;2023-08-12T06:40:54;20.90;63.10
70079;DHT22;57451;52.496;13.456;2023-08-12T06:43:21;21.00;63.50
70079;DHT22;57451;52.496;13.456;2023-08-12T06:45:49;21.00;63.30
70079;DHT22;57451;52.496;13.456;2023-08-12T06:48:16;21.10;63.10
70079;DHT22;57451;52.496;13.456;2023-08-12T06:50:45;21.10;62.60
70079;DHT22;57451;52.496;13.456;2023-08-12T06:53:13;21.20;62.80
70079;DHT22;57451;52.496;13.456;2023-08-12T06:55:44;21.20;62.60
70079;DHT22;57451;52.496;13.456;2023-08-12T07:00:39;21.30;62.60
70079;DHT22;57451;52.496;13.456;2023-08-12T07:03:06;21.40;62.70
70079;DHT22;57451;52.496;13.456;2023-08-12T07:05:34;21.50;62.40
70079;DHT22;57451;52.496;13.456;2023-08-12T07:08:03;21.50;62.20
70079;DHT22;57451;52.496;13.456;2023-08-12T07:10:30;21.60;62.70
70079;DHT22;57451;52.496;13.456;2023-08-12T07:12:58;21.60;62.80
70079;DHT22;57451;52.496;13.456;2023-08-12T07:15:25;21.70;62.80
70079;DHT22;57451;52.496;13.456;2023-08-12T07:17:52;21.70;62.80
70079;DHT22;57451;52.496;13.456;2023-08-12T07:20:20;21.80;62.30
70079;DHT22;57451;52.496;13.456;2023-08-12T07:22:47;21.80;62.10
70079;DHT22;57451;52.496;13.456;2023-08-12T07:25:16;21.90;61.90
70079;DHT22;57451;52.496;13.456;2023-08-12T07:27:43;21.90;61.90
70079;DHT22;57451;52.496;13.456;2023-08-12T07:30:11;22.00;62.00
70079;DHT22;57451;52.496;13.456;2023-08-12T07:32:39;22.10;61.90
70079;DHT22;57451;52.496;13.456;2023-08-12T07:35:07;22.10;62.30
70079;DHT22;57451;52.496;13.456;2023-08-12T07:37:34;22.20;61.30
70079;DHT22;57451;52.496;13.456;2023-08-12T07:40:02;22.30;61.00
70079;DHT22;57451;52.496;13.456;2023-08-12T07:42:31;22.30;61.20
70079;DHT22;57451;52.496;13.456;2023-08-12T07:44:59;22.40;60.70
70079;DHT22;57451;52.496;13.456;2023-08-12T07:47:26;22.50;60.50
70079;DHT22;57451;52.496;13.456;2023-08-12T07:49:53;22.50;60.50
70079;DHT22;57451;52.496;13.456;2023-08-12T07:52:21;22.60;60.60
70079;DHT22;57451;52.496;13.456;2023-08-12T07:54:48;22.60;60.20
70079;DHT22;57451;52.496;13.456;2023-08-12T07:57:16;22.70;60.20
70079;DHT22;57451;52.496;13.456;2023-08-12T07:59:44;22.70;60.20
70079;DHT22;57451;52.496;13.456;2023-08-12T08:02:12;22.80;60.30
70079;DHT22;57451;52.496;13.456;2023-08-12T08:04:39;22.80;60.40
70079;DHT22;57451;52.496;13.456;2023-08-12T08:07:07;22.80;60.30
70079;DHT22;57451;52.496;13.456;2023-08-12T08:09:34;22.90;60.50
70079;DHT22;57451;52.496;13.456;2023-08-12T08:12:02;23.00;60.50
70079;DHT22;57451;52.496;13.456;2023-08-12T08:14:29;23.00;60.70
70079;DHT22;57451;52.496;13.456;2023-08-12T08:16:58;23.10;60.50
70079;DHT22;57451;52.496;13.456;2023-08-12T08:19:27;23.20;60.00
70079;DHT22;57451;52.496;13.456;2023-08-12T08:21:56;23.20;59.90
70079;DHT22;57451;52.496;13.456;2023-08-12T08:24:24;23.30;59.80
70079;DHT22;57451;52.496;13.456;2023-08-12T08:26:51;23.40;59.50
70079;DHT22;57451;52.496;13.456;2023-08-12T08:29:19;23.40;59.60
70079;DHT22;57451;52.496;13.456;2023-08-12T08:31:46;23.50;59.60
70079;DHT22;57451;52.496;13.456;2023-08-12T08:34:15;23.50;59.60
70079;DHT22;57451;52.496;13.456;2023-08-12T08:36:43;23.50;59.40
70079;DHT22;57451;52.496;13.456;2023-08-12T08:39:10;23.60;59.30
70079;DHT22;57451;52.496;13.456;2023-08-12T08:41:39;23.60;59.30
70079;DHT22;57451;52.496;13.456;2023-08-12T08:44:08;23.60;59.20
70079;DHT22;57451;52.496;13.456;2023-08-12T08:46:36;23.60;59.20
70079;DHT22;57451;52.496;13.456;2023-08-12T08:49:04;23.60;59.30
70079;DHT22;57451;52.496;13.456;2023-08-12T08:51:34;23.60;59.60
70079;DHT22;57451;52.496;13.456;2023-08-12T08:54:02;23.50;59.70
70079;DHT22;57451;52.496;13.456;2023-08-12T08:56:32;23.50;59.80
70079;DHT22;57451;52.496;13.456;2023-08-12T08:59:01;23.50;59.80
70079;DHT22;57451;52.496;13.456;2023-08-12T09:01:29;23.50;59.60
70079;DHT22;57451;52.496;13.456;2023-08-12T09:03:57;23.50;59.90
70079;DHT22;57451;52.496;13.456;2023-08-12T09:06:25;23.50;60.30
70079;DHT22;57451;52.496;13.456;2023-08-12T09:08:56;23.50;60.60
70079;DHT22;57451;52.496;13.456;2023-08-12T09:11:24;23.50;60.90
70079;DHT22;57451;52.496;13.456;2023-08-12T09:13:52;23.50;61.40
70079;DHT22;57451;52.496;13.456;2023-08-12T09:16:20;23.60;61.50
70079;DHT22;57451;52.496;13.456;2023-08-12T09:18:47;23.50;61.50
70079;DHT22;57451;52.496;13.456;2023-08-12T09:21:21;23.50;61.60
70079;DHT22;57451;52.496;13.456;2023-08-12T09:23:48;23.50;61.60
70079;DHT22;57451;52.496;13.456;2023-08-12T09:26:18;23.60;61.50
70079;DHT22;57451;52.496;13.456;2023-08-12T09:28:46;23.60;62.00
70079;DHT22;57451;52.496;13.456;2023-08-12T09:31:22;23.70;62.40
70079;DHT22;57451;52.496;13.456;2023-08-12T09:33:51;23.70;62.20
70079;DHT22;57451;52.496;13.456;2023-08-12T09:36:18;23.80;61.90
70079;DHT22;57451;52.496;13.456;2023-08-12T09:38:47;23.90;62.70
70079;DHT22;57451;52.496;13.456;2023-08-12T09:41:16;24.00;61.50
70079;DHT22;57451;52.496;13.456;2023-08-12T09:43:44;24.10;61.60
70079;DHT22;57451;52.496;13.456;2023-08-12T09:46:12;24.20;60.20
70079;DHT22;57451;52.496;13.456;2023-08-12T09:48:43;24.20;60.10
70079;DHT22;57451;52.496;13.456;2023-08-12T09:51:10;24.30;59.60
70079;DHT22;57451;52.496;13.456;2023-08-12T09:53:38;24.40;59.20
70079;DHT22;57451;52.496;13.456;2023-08-12T09:56:07;24.40;59.10
70079;DHT22;57451;52.496;13.456;2023-08-12T09:58:37;24.40;58.90
70079;DHT22;57451;52.496;13.456;2023-08-12T10:01:05;24.50;59.20
70079;DHT22;57451;52.496;13.456;2023-08-12T10:03:34;24.60;59.40
70079;DHT22;57451;52.496;13.456;2023-08-12T10:06:03;24.60;59.30
70079;DHT22;57451;52.496;13.456;2023-08-12T10:08:31;24.70;59.40
70079;DHT22;57451;52.496;13.456;2023-08-12T10:10:59;24.70;59.70
70079;DHT22;57451;52.496;13.456;2023-08-12T10:13:41;24.80;59.90
70079;DHT22;57451;52.496;13.456;2023-08-12T10:16:09;24.80;58.90
70079;DHT22;57451;52.496;13.456;2023-08-12T10:18:38;24.80;59.00
70079;DHT22;57451;52.496;13.456;2023-08-12T10:21:09;24.90;58.90
70079;DHT22;57451;52.496;13.456;2023-08-12T10:23:37;24.90;58.90
70079;DHT22;57451;52.496;13.456;2023-08-12T10:26:05;25.00;59.00
70079;DHT22;57451;52.496;13.456;2023-08-12T10:28:34;25.00;58.70
70079;DHT22;57451;52.496;13.456;2023-08-12T10:31:06;25.00;58.70
70079;DHT22;57451;52.496;13.456;2023-08-12T10:33:37;25.00;59.10
70079;DHT22;57451;52.496;13.456;2023-08-12T10:36:05;25.00;58.90
70079;DHT22;57451;52.496;13.456;2023-08-12T10:38:33;25.10;59.30
70079;DHT22;57451;52.496;13.456;2023-08-12T10:41:17;25.10;59.30
70079;DHT22;57451;52.496;13.456;2023-08-12T10:43:49;25.10;59.50
70079;DHT22;57451;52.496;13.456;2023-08-12T10:46:23;25.20;59.60
70079;DHT22;57451;52.496;13.456;2023-08-12T10:49:01;25.10;59.40
70079;DHT22;57451;52.496;13.456;2023-08-12T10:51:46;25.20;59.70
70079;DHT22;57451;52.496;13.456;2023-08-12T10:54:15;25.20;59.40
70079;DHT22;57451;52.496;13.456;2023-08-12T10:57:05;25.20;59.90
70079;DHT22;57451;52.496;13.456;2023-08-12T10:59:50;25.20;60.20
70079;DHT22;57451;52.496;13.456;2023-08-12T11:02:20;25.30;60.30
70079;DHT22;57451;52.496;13.456;2023-08-12T11:04:50;25.30;60.30
70079;DHT22;57451;52.496;13.456;2023-08-12T11:07:20;25.30;60.20
70079;DHT22;57451;52.496;13.456;2023-08-12T11:09:51;25.40;60.20
70079;DHT22;57451;52.496;13.456;2023-08-12T11:12:30;25.40;60.30
70079;DHT22;57451;52.496;13.456;2023-08-12T11:14:59;25.50;60.10
70079;DHT22;57451;52.496;13.456;2023-08-12T11:17:32;25.60;60.00
70079;DHT22;57451;52.496;13.456;2023-08-12T11:20:01;25.60;59.60
70079;DHT22;57451;52.496;13.456;2023-08-12T11:22:32;25.60;59.20
70079;DHT22;57451;52.496;13.456;2023-08-12T11:25:01;25.60;59.30
70079;DHT22;57451;52.496;13.456;2023-08-12T11:27:36;25.70;59.50
70079;DHT22;57451;52.496;13.456;2023-08-12T11:30:05;25.70;60.10
70079;DHT22;57451;52.496;13.456;2023-08-12T11:32:34;25.70;58.50
70079;DHT22;57451;52.496;13.456;2023-08-12T11:35:02;25.70;58.60
70079;DHT22;57451;52.496;13.456;2023-08-12T11:37:31;25.70;58.60
70079;DHT22;57451;52.496;13.456;2023-08-12T11:39:58;25.70;58.10
70079;DHT22;57451;52.496;13.456;2023-08-12T11:42:25;25.70;58.10
70079;DHT22;57451;52.496;13.456;2023-08-12T11:44:53;25.70;57.90
70079;DHT22;57451;52.496;13.456;2023-08-12T11:47:20;25.70;57.80
70079;DHT22;57451;52.496;13.456;2023-08-12T11:49:51;25.70;56.80
70079;DHT22;57451;52.496;13.456;2023-08-12T11:52:18;25.70;58.00
70079;DHT22;57451;52.496;13.456;2023-08-12T11:54:46;25.60;58.00
70079;DHT22;57451;52.496;13.456;2023-08-12T11:57:13;25.70;57.40
70079;DHT22;57451;52.496;13.456;2023-08-12T11:59:40;25.60;56.70
70079;DHT22;57451;52.496;13.456;2023-08-12T12:02:08;25.60;57.30
70079;DHT22;57451;52.496;13.456;2023-08-12T12:04:37;25.60;57.30
70079;DHT22;57451;52.496;13.456;2023-08-12T12:07:18;25.60;57.40
70079;DHT22;57451;52.496;13.456;2023-08-12T12:09:46;25.60;57.40
70079;DHT22;57451;52.496;13.456;2023-08-12T12:12:13;25.60;57.70
70079;DHT22;57451;52.496;13.456;2023-08-12T12:14:41;25.60;57.70
70079;DHT22;57451;52.496;13.456;2023-08-12T12:17:09;25.60;57.80
70079;DHT22;57451;52.496;13.456;2023-08-12T12:19:40;25.60;58.00
70079;DHT22;57451;52.496;13.456;2023-08-12T12:22:07;25.60;58.10
70079;DHT22;57451;52.496;13.456;2023-08-12T12:24:45;25.60;58.40
70079;DHT22;57451;52.496;13.456;2023-08-12T12:27:16;25.60;58.40
70079;DHT22;57451;52.496;13.456;2023-08-12T12:29:43;25.60;58.50
70079;DHT22;57451;52.496;13.456;2023-08-12T12:32:11;25.60;58.80
70079;DHT22;57451;52.496;13.456;2023-08-12T12:34:38;25.60;58.70
70079;DHT22;57451;52.496;13.456;2023-08-12T12:37:06;25.60;58.90
70079;DHT22;57451;52.496;13.456;2023-08-12T12:39:33;25.60;59.00
70079;DHT22;57451;52.496;13.456;2023-08-12T12:42:02;25.50;58.60
70079;DHT22;57451;52.496;13.456;2023-08-12T12:44:30;25.50;58.40
70079;DHT22;57451;52.496;13.456;2023-08-12T12:46:57;25.50;58.50
70079;DHT22;57451;52.496;13.456;2023-08-12T12:49:25;25.50;58.50
70079;DHT22;57451;52.496;13.456;2023-08-12T12:51:52;25.50;58.80
70079;DHT22;57451;52.496;13.456;2023-08-12T12:54:19;25.50;59.00
70079;DHT22;57451;52.496;13.456;2023-08-12T12:56:47;25.50;59.00
70079;DHT22;57451;52.496;13.456;2023-08-12T12:59:16;25.50;59.30
70079;DHT22;57451;52.496;13.456;2023-08-12T13:01:44;25.50;59.40
70079;DHT22;57451;52.496;13.456;2023-08-12T13:04:12;25.60;59.50
70079;DHT22;57451;52.496;13.456;2023-08-12T13:06:39;25.60;59.80
70079;DHT22;57451;52.496;13.456;2023-08-12T13:09:07;25.70;60.40
70079;DHT22;57451;52.496;13.456;2023-08-12T13:11:34;25.80;59.80
70079;DHT22;57451;52.496;13.456;2023-08-12T13:14:03;25.80;59.60
70079;DHT22;57451;52.496;13.456;2023-08-12T13:16:32;25.90;59.40
70079;DHT22;57451;52.496;13.456;2023-08-12T13:18:59;25.90;59.20
70079;DHT22;57451;52.496;13.456;2023-08-12T13:21:27;26.00;59.00
70079;DHT22;57451;52.496;13.456;2023-08-12T13:23:54;26.10;59.20
70079;DHT22;57451;52.496;13.456;2023-08-12T13:26:25;26.20;59.20
70079;DHT22;57451;52.496;13.456;2023-08-12T13:28:53;26.30;58.70
70079;DHT22;57451;52.496;13.456;2023-08-12T13:31:20;26.50;57.70
70079;DHT22;57451;52.496;13.456;2023-08-12T13:33:49;26.60;57.90
70079;DHT22;57451;52.496;13.456;2023-08-12T13:36:17;26.70;57.80
70079;DHT22;57451;52.496;13.456;2023-08-12T13:38:44;26.90;57.50
70079;DHT22;57451;52.496;13.456;2023-08-12T13:41:12;27.10;58.00
70079;DHT22;57451;52.496;13.456;2023-08-12T13:43:39;27.20;56.30
70079;DHT22;57451;52.496;13.456;2023-08-12T13:46:06;27.40;56.80
70079;DHT22;57451;52.496;13.456;2023-08-12T13:48:34;27.60;56.20
70079;DHT22;57451;52.496;13.456;2023-08-12T13:51:03;27.70;55.70
70079;DHT22;57451;52.496;13.456;2023-08-12T13:53:31;27.80;55.90
70079;DHT22;57451;52.496;13.456;2023-08-12T13:55:58;28.00;55.00
70079;DHT22;57451;52.496;13.456;2023-08-12T13:58:25;28.10;54.70
70079;DHT22;57451;52.496;13.456;2023-08-12T14:00:53;28.20;55.40
70079;DHT22;57451;52.496;13.456;2023-08-12T14:03:20;28.50;54.00
70079;DHT22;57451;52.496;13.456;2023-08-12T14:05:47;28.70;53.00
70079;DHT22;57451;52.496;13.456;2023-08-12T14:08:16;28.90;52.30
70079;DHT22;57451;52.496;13.456;2023-08-12T14:10:45;29.10;50.90
70079;DHT22;57451;52.496;13.456;2023-08-12T14:13:12;29.30;50.90
70079;DHT22;57451;52.496;13.456;2023-08-12T14:15:40;29.50;49.90
70079;DHT22;57451;52.496;13.456;2023-08-12T14:18:08;29.60;48.60
70079;DHT22;57451;52.496;13.456;2023-08-12T14:20:35;29.70;49.00
70079;DHT22;57451;52.496;13.456;2023-08-12T14:23:03;29.70;47.80
70079;DHT22;57451;52.496;13.456;2023-08-12T14:25:31;29.70;48.20
70079;DHT22;57451;52.496;13.456;2023-08-12T14:27:59;29.70;47.60
70079;DHT22;57451;52.496;13.456;2023-08-12T14:30:26;29.60;49.10
70079;DHT22;57451;52.496;13.456;2023-08-12T14:32:54;29.60;47.90
70079;DHT22;57451;52.496;13.456;2023-08-12T14:35:21;29.60;49.20
70079;DHT22;57451;52.496;13.456;2023-08-12T14:37:49;29.60;48.40
70079;DHT22;57451;52.496;13.456;2023-08-12T14:40:16;29.50;49.00
70079;DHT22;57451;52.496;13.456;2023-08-12T14:42:45;29.50;48.50
70079;DHT22;57451;52.496;13.456;2023-08-12T14:45:12;29.50;49.50
70079;DHT22;57451;52.496;13.456;2023-08-12T14:47:40;29.40;49.40
70079;DHT22;57451;52.496;13.456;2023-08-12T14:50:08;29.40;50.10
70079;DHT22;57451;52.496;13.456;2023-08-12T14:52:36;29.50;49.70
70079;DHT22;57451;52.496;13.456;2023-08-12T14:55:03;29.50;50.20
70079;DHT22;57451;52.496;13.456;2023-08-12T14:57:31;29.50;49.60
70079;DHT22;57451;52.496;13.456;2023-08-12T14:59:59;29.50;49.70
70079;DHT22;57451;52.496;13.456;2023-08-12T15:02:27;29.50;50.00
70079;DHT22;57451;52.496;13.456;2023-08-12T15:04:57;29.60;49.40
70079;DHT22;57451;52.496;13.456;2023-08-12T15:07:26;29.60;49.00
70079;DHT22;57451;52.496;13.456;2023-08-12T15:09:53;29.60;49.70
70079;DHT22;57451;52.496;13.456;2023-08-12T15:12:22;29.70;50.00
70079;DHT22;57451;52.496;13.456;2023-08-12T15:14:49;29.70;50.20
70079;DHT22;57451;52.496;13.456;2023-08-12T15:17:18;29.80;49.70
70079;DHT22;57451;52.496;13.456;2023-08-12T15:19:45;29.80;49.00
70079;DHT22;57451;52.496;13.456;2023-08-12T15:22:13;29.70;49.50
70079;DHT22;57451;52.496;13.456;2023-08-12T15:24:40;29.60;49.10